loxchat.com alexa rank chart, loxchat.com alexa rank daily changes

loxchat.com alexa rank chart, loxchat.com alexa rank daily changes

loxchat.com
Actual rank:
797 422

RANK HISTORY

Date Rank Diff
2017/07/27 797 422 -84 399
2017/07/26 881 821 +4 057
2017/07/25 877 764 +52 406
2017/07/24 825 358 -4 540
2017/07/23 829 898 +15 227
2017/07/22 814 671 +15 229
2017/07/21 799 442 -2 015
2017/07/20 801 457 +21 036
2017/07/19 780 421 +18 253
2017/07/18 762 168 +46 248
2017/07/17 715 920 +72 216
2017/07/16 643 704 -18 364
2017/07/15 662 068 +19 546
2017/07/14 642 522 -21 833
2017/07/13 664 355 +4 366
2017/07/12 659 989 -6 549
2017/07/11 666 538 -28 900
2017/07/10 695 438 +12 062
2017/07/09 683 376 -20 431
2017/07/08 703 807 -65 062
2017/07/07 768 869 -86
2017/07/06 768 955 +3 106
2017/07/05 765 849 -106 430
2017/07/04 872 279 +27 334
2017/07/03 844 945 +36 775
2017/07/02 808 170 +15 072
2017/07/01 793 098 +45 418
2017/06/30 747 680 +3 545
2017/06/29 744 135 +39 433
2017/06/28 704 702 +25 478
2017/06/27 679 224 +18 332
2017/06/26 660 892 -2 657
2017/06/25 663 549 -1 344
2017/06/24 664 893 +40 130
2017/06/23 624 763 +27 701
2017/06/22 597 062 -4 438
2017/06/21 601 500 -3 953
2017/06/20 605 453 +27 949
2017/06/19 577 504 +20 083
2017/06/18 557 421 -18 747
2017/06/17 576 168 -33 173
2017/06/16 609 341 +25 799
2017/06/15 583 542 +40 020
2017/06/14 543 522 +56 839
2017/06/13 486 683 +41 599
2017/06/12 445 084 +12 235
2017/06/11 432 849 +20 984
2017/06/10 411 865 +8 551
2017/06/09 403 314 +7 552
2017/06/08 395 762 +4 593
2017/06/07 391 169 +17 869
2017/06/06 373 300 +17 840
2017/06/05 355 460 +5 725
2017/06/04 349 735 +3 532
2017/06/03 346 203 -3 200
2017/06/02 349 403 +13 203
2017/06/01 336 200 +4 993
2017/05/31 331 207 +9 879
2017/05/30 321 328 +8 423
2017/05/29 312 905 +202
2017/05/28 312 703

WIDGET FOR YOUR SITE

DOMAINS WITH THE NEAREST RANK

Domain Rank
xfire.com 797 417
opowiadania.pl 797 418
deltasigmatheta.org 797 419
rikanenpyo.jp 797 420
eroeroeroeroblog.jp 797 421
loxchat.com 797 422
yourdadsnudes.tumblr.com 797 423
lesgeorgettes.com 797 424
vecow.com 797 425
b4sportonline.pl 797 426
ctn1986.com 797 427

DOMAINS WITH THE NEAREST RANK BY TLD .com

Domain Rank
tracktl.com 797 411
mzansinudes.com 797 412
axelerant.com 797 414
siteselection.com 797 416
xfire.com 797 417
loxchat.com 797 422
lesgeorgettes.com 797 424
vecow.com 797 425
ctn1986.com 797 427
ibillboard.com 797 428
freemailtemplates.com 797 429